createdAt,value
2023-02-24T00:01:52.333Z,14.00
2023-02-24T00:04:20.717Z,16.60
2023-02-24T00:06:48.435Z,15.88
2023-02-24T00:09:19.433Z,13.77
2023-02-24T00:11:57.840Z,15.23
2023-02-24T00:14:27.140Z,15.43
2023-02-24T00:16:54.077Z,15.57
2023-02-24T00:19:23.922Z,17.58
2023-02-24T00:21:51.650Z,19.35
2023-02-24T00:24:18.919Z,17.35
2023-02-24T00:26:45.969Z,17.02
2023-02-24T00:29:15.676Z,21.48
2023-02-24T00:31:43.086Z,18.02
2023-02-24T00:34:12.518Z,16.48
2023-02-24T00:36:39.547Z,16.92
2023-02-24T00:39:09.562Z,17.52
2023-02-24T00:41:43.234Z,14.00
2023-02-24T00:44:12.633Z,19.23
2023-02-24T00:46:42.127Z,28.10
2023-02-24T00:49:16.810Z,31.23
2023-02-24T00:51:46.754Z,27.13
2023-02-24T00:54:15.015Z,24.00
2023-02-24T00:56:47.288Z,22.40
2023-02-24T00:59:15.953Z,22.80
2023-02-24T01:01:49.331Z,22.30
2023-02-24T01:06:45.989Z,19.52
2023-02-24T01:09:15.996Z,21.27
2023-02-24T01:12:02.966Z,20.92
2023-02-24T01:14:32.747Z,20.88
2023-02-24T01:17:00.103Z,15.32
2023-02-24T01:19:31.413Z,17.67
2023-02-24T01:21:59.359Z,17.08
2023-02-24T01:24:26.003Z,17.90
2023-02-24T01:26:52.989Z,16.85
2023-02-24T01:29:19.902Z,18.92
2023-02-24T01:31:48.806Z,19.10
2023-02-24T01:34:17.285Z,17.42
2023-02-24T01:36:44.754Z,20.67
2023-02-24T01:39:14.500Z,20.75
2023-02-24T01:41:44.098Z,18.83
2023-02-24T01:44:14.289Z,18.00
2023-02-24T01:46:43.347Z,19.15
2023-02-24T01:49:14.517Z,20.75
2023-02-24T01:52:18.134Z,18.55
2023-02-24T01:55:10.572Z,20.27
2023-02-24T01:57:38.945Z,19.27
2023-02-24T02:00:37.140Z,19.98
2023-02-24T02:03:11.054Z,18.67
2023-02-24T02:05:40.200Z,20.55
2023-02-24T02:08:09.182Z,18.67
2023-02-24T02:10:39.115Z,21.17
2023-02-24T02:13:06.300Z,21.05
2023-02-24T02:15:40.140Z,20.02
2023-02-24T02:18:32.111Z,19.90
2023-02-24T02:21:20.232Z,22.25
2023-02-24T02:23:53.875Z,21.00
2023-02-24T02:26:42.162Z,21.20
2023-02-24T02:29:25.370Z,18.15
2023-02-24T02:32:10.859Z,23.02
2023-02-24T02:35:21.657Z,20.25
2023-02-24T02:37:56.806Z,17.75
2023-02-24T02:40:31.680Z,18.58
2023-02-24T02:43:07.599Z,17.48
2023-02-24T02:45:48.119Z,16.98
2023-02-24T02:48:26.685Z,18.90
2023-02-24T02:51:04.165Z,22.25
2023-02-24T02:53:37.761Z,21.00
2023-02-24T02:58:42.134Z,22.02
2023-02-24T03:01:11.062Z,30.67
2023-02-24T03:03:49.214Z,19.55
2023-02-24T03:06:27.547Z,22.52
2023-02-24T03:09:15.968Z,22.52
2023-02-24T03:11:48.242Z,24.50
2023-02-24T03:14:17.382Z,25.95
2023-02-24T03:16:49.059Z,24.15
2023-02-24T03:19:20.863Z,27.33
2023-02-24T03:21:58.493Z,26.70
2023-02-24T03:24:25.221Z,27.05
2023-02-24T03:27:00.989Z,30.02
2023-02-24T03:29:37.331Z,28.60
2023-02-24T03:32:26.822Z,24.17
2023-02-24T03:35:11.741Z,28.15
2023-02-24T03:37:38.435Z,28.75
2023-02-24T03:40:11.605Z,30.00
2023-02-24T03:42:50.376Z,24.73
2023-02-24T03:45:18.279Z,24.55
2023-02-24T03:47:46.582Z,22.88
2023-02-24T03:50:18.993Z,23.65
2023-02-24T03:52:51.244Z,23.83
2023-02-24T03:55:26.517Z,22.77
2023-02-24T03:58:12.624Z,25.80
2023-02-24T04:01:06.345Z,26.00
2023-02-24T04:03:53.342Z,22.65
2023-02-24T04:06:25.836Z,24.75
2023-02-24T04:09:01.717Z,28.43
2023-02-24T04:11:37.599Z,24.80
2023-02-24T04:14:18.605Z,25.48
2023-02-24T04:17:03.139Z,26.08
2023-02-24T04:19:33.921Z,23.98
2023-02-24T04:22:01.213Z,25.60
2023-02-24T04:24:31.435Z,23.60
2023-02-24T04:27:01.099Z,21.05
2023-02-24T04:29:35.569Z,24.10
2023-02-24T04:32:11.756Z,20.10
2023-02-24T04:34:40.271Z,22.15
2023-02-24T04:37:07.448Z,24.98
2023-02-24T04:39:38.342Z,24.15
2023-02-24T04:42:06.737Z,23.77
2023-02-24T04:44:33.531Z,22.58
2023-02-24T04:47:00.683Z,24.63
2023-02-24T04:49:27.448Z,22.75
2023-02-24T04:51:54.064Z,25.05
2023-02-24T04:54:21.247Z,23.73
2023-02-24T04:56:50.772Z,23.48
2023-02-24T04:59:21.950Z,26.65
2023-02-24T05:01:51.603Z,23.83
2023-02-24T05:04:18.627Z,25.15
2023-02-24T05:06:46.704Z,27.48
2023-02-24T05:09:19.393Z,26.33
2023-02-24T05:11:52.441Z,26.70
2023-02-24T05:14:23.084Z,24.63
2023-02-24T05:16:49.710Z,25.50
2023-02-24T05:19:37.760Z,26.17
2023-02-24T05:22:07.005Z,29.77
2023-02-24T05:24:34.634Z,24.85
2023-02-24T05:27:03.677Z,27.65
2023-02-24T05:29:34.145Z,24.10
2023-02-24T05:32:02.455Z,25.75
2023-02-24T05:34:30.876Z,26.95
2023-02-24T05:36:59.219Z,28.15
2023-02-24T05:39:27.077Z,27.77
2023-02-24T05:41:54.862Z,27.65
2023-02-24T05:44:23.299Z,31.65
2023-02-24T05:46:58.401Z,30.75
2023-02-24T05:49:29.480Z,31.67
2023-02-24T05:52:00.142Z,30.67
2023-02-24T05:54:30.028Z,31.58
2023-02-24T05:57:03.130Z,30.50
2023-02-24T05:59:32.960Z,25.00
2023-02-24T06:02:07.299Z,28.63
2023-02-24T06:04:45.754Z,30.83
2023-02-24T06:07:22.662Z,29.92
2023-02-24T06:09:53.495Z,29.77
2023-02-24T06:12:21.697Z,29.92
2023-02-24T06:14:48.474Z,30.05
2023-02-24T06:17:16.993Z,30.38
2023-02-24T06:19:44.880Z,28.48
2023-02-24T06:22:13.866Z,30.15
2023-02-24T06:24:44.311Z,31.75
2023-02-24T06:27:19.022Z,29.83
2023-02-24T06:29:50.791Z,29.25
2023-02-24T06:32:19.373Z,28.27
2023-02-24T06:34:46.266Z,37.72
2023-02-24T06:37:14.936Z,34.05
2023-02-24T06:39:41.903Z,36.08
2023-02-24T06:42:10.693Z,32.92
2023-02-24T06:44:39.340Z,34.05
2023-02-24T06:47:07.336Z,36.15
2023-02-24T06:49:34.770Z,34.47
2023-02-24T06:52:01.706Z,33.20
2023-02-24T06:54:30.350Z,32.85
2023-02-24T06:56:59.246Z,34.78
2023-02-24T06:59:29.800Z,34.35
2023-02-24T07:01:58.444Z,34.58
2023-02-24T07:04:28.377Z,34.97
2023-02-24T07:07:03.430Z,34.65
2023-02-24T07:09:31.335Z,33.55
2023-02-24T07:11:58.834Z,32.83
2023-02-24T07:14:27.571Z,32.58
2023-02-24T07:16:54.750Z,39.95
2023-02-24T07:19:25.569Z,35.92
2023-02-24T07:21:59.949Z,30.83
2023-02-24T07:24:36.308Z,39.08
2023-02-24T07:27:13.329Z,32.85
2023-02-24T07:29:40.096Z,34.05
2023-02-24T07:32:09.145Z,34.25
2023-02-24T07:34:40.365Z,31.90
2023-02-24T07:37:08.678Z,35.05
2023-02-24T07:39:39.389Z,33.92
2023-02-24T07:42:08.019Z,36.85
2023-02-24T07:44:34.603Z,35.95
2023-02-24T07:47:01.406Z,32.00
2023-02-24T07:49:30.105Z,33.63
2023-02-24T07:51:57.941Z,36.20
2023-02-24T07:54:29.849Z,32.63
2023-02-24T07:56:59.031Z,30.13
2023-02-24T07:59:29.016Z,32.33
2023-02-24T08:01:56.783Z,32.30
2023-02-24T08:04:29.943Z,36.17
2023-02-24T08:06:59.012Z,34.97
2023-02-24T08:09:47.842Z,33.65
2023-02-24T08:12:21.704Z,33.65
2023-02-24T08:14:53.323Z,37.35
2023-02-24T08:17:26.253Z,34.83
2023-02-24T08:20:14.766Z,30.38
2023-02-24T08:22:51.940Z,31.45
2023-02-24T08:25:24.845Z,32.22
2023-02-24T08:28:12.117Z,38.05
2023-02-24T08:30:44.943Z,34.33
2023-02-24T08:33:17.818Z,28.48
2023-02-24T08:35:45.310Z,32.28
2023-02-24T08:38:20.540Z,30.80
2023-02-24T08:40:54.985Z,29.90
2023-02-24T08:43:37.211Z,27.88
2023-02-24T08:46:25.645Z,26.95
2023-02-24T08:48:55.693Z,27.50
2023-02-24T08:51:34.982Z,25.92
2023-02-24T08:54:10.824Z,25.55
2023-02-24T08:56:43.213Z,27.95
2023-02-24T08:59:29.182Z,24.05
2023-02-24T09:02:17.722Z,24.40
2023-02-24T09:04:46.138Z,23.85
2023-02-24T09:07:15.976Z,26.40
2023-02-24T09:09:43.732Z,25.20
2023-02-24T09:12:21.840Z,26.25
2023-02-24T09:14:50.723Z,26.52
2023-02-24T09:17:20.603Z,24.45
2023-02-24T09:19:49.974Z,21.45
2023-02-24T09:22:31.708Z,19.88
2023-02-24T09:25:21.290Z,20.88
2023-02-24T09:27:55.047Z,22.00
2023-02-24T09:30:38.921Z,19.50
2023-02-24T09:33:21.292Z,22.70
2023-02-24T09:35:52.500Z,20.65
2023-02-24T09:38:42.800Z,17.88
2023-02-24T09:41:31.475Z,20.13
2023-02-24T09:44:03.544Z,19.77
2023-02-24T09:46:37.266Z,19.88
2023-02-24T09:49:39.753Z,19.77
2023-02-24T09:52:18.261Z,22.17
2023-02-24T09:55:09.192Z,21.85
2023-02-24T09:58:13.815Z,21.27
2023-02-24T10:00:47.630Z,20.80
2023-02-24T10:03:42.951Z,19.25
2023-02-24T10:06:20.460Z,19.70
2023-02-24T10:08:55.038Z,17.98
2023-02-24T10:11:34.569Z,17.95
2023-02-24T10:14:05.680Z,17.58
2023-02-24T10:16:44.271Z,18.77
2023-02-24T10:19:23.533Z,18.90
2023-02-24T10:22:27.331Z,20.90
2023-02-24T10:25:21.878Z,19.52
2023-02-24T10:28:06.790Z,22.00
2023-02-24T10:31:04.016Z,21.00
2023-02-24T10:33:38.784Z,21.02
2023-02-24T10:36:12.554Z,22.30
2023-02-24T10:38:45.487Z,22.15
2023-02-24T10:41:14.595Z,20.42
2023-02-24T10:43:53.990Z,21.95
2023-02-24T10:46:40.889Z,20.20
2023-02-24T10:49:10.481Z,20.90
2023-02-24T10:51:38.447Z,20.35
2023-02-24T10:54:22.946Z,21.02
2023-02-24T10:57:18.129Z,24.27
2023-02-24T11:00:09.952Z,21.77
2023-02-24T11:02:57.937Z,21.88
2023-02-24T11:05:38.022Z,22.08
2023-02-24T11:08:26.108Z,19.95
2023-02-24T11:10:58.535Z,20.50
2023-02-24T11:13:45.412Z,20.00
2023-02-24T11:16:30.801Z,19.67
2023-02-24T11:18:57.897Z,21.63
2023-02-24T11:21:27.052Z,21.33
2023-02-24T11:23:59.588Z,21.70
2023-02-24T11:26:52.888Z,22.95
2023-02-24T11:29:48.154Z,22.27
2023-02-24T11:32:41.037Z,20.38
2023-02-24T11:35:20.338Z,18.90
2023-02-24T11:38:03.990Z,19.83
2023-02-24T11:40:41.352Z,20.50
2023-02-24T11:43:20.621Z,18.98
2023-02-24T11:46:04.537Z,17.38
2023-02-24T11:48:37.912Z,20.97
2023-02-24T11:51:30.194Z,18.48
2023-02-24T11:54:00.422Z,17.52
2023-02-24T11:56:31.974Z,16.30
2023-02-24T11:59:05.059Z,14.45
2023-02-24T12:01:35.172Z,18.95
2023-02-24T12:04:27.702Z,17.88
2023-02-24T12:07:08.005Z,17.67
2023-02-24T12:09:45.135Z,17.90
2023-02-24T12:12:22.397Z,19.35
2023-02-24T12:14:54.101Z,17.35
2023-02-24T12:17:44.228Z,19.92
2023-02-24T12:20:30.849Z,16.67
2023-02-24T12:23:02.196Z,17.52
2023-02-24T12:25:36.467Z,18.60
2023-02-24T12:28:18.775Z,18.63
2023-02-24T12:31:03.265Z,17.50
2023-02-24T12:33:39.185Z,17.80
2023-02-24T12:36:39.521Z,17.77
2023-02-24T12:39:16.084Z,16.67
2023-02-24T12:42:07.547Z,18.70
2023-02-24T12:44:45.087Z,14.80
2023-02-24T12:47:15.328Z,15.98
2023-02-24T12:50:06.687Z,17.85
2023-02-24T12:52:59.653Z,16.02
2023-02-24T12:55:44.517Z,17.00
2023-02-24T12:58:19.560Z,16.75
2023-02-24T13:00:55.047Z,15.80
2023-02-24T13:03:46.392Z,18.48
2023-02-24T13:06:27.431Z,20.08
2023-02-24T13:09:14.166Z,18.17
2023-02-24T13:12:11.922Z,17.90
2023-02-24T13:14:43.912Z,18.23
2023-02-24T13:17:10.474Z,20.60
2023-02-24T13:19:48.072Z,16.90
2023-02-24T13:22:15.419Z,16.85
2023-02-24T13:25:03.703Z,19.15
2023-02-24T13:27:35.135Z,18.23
2023-02-24T13:30:25.501Z,16.58
2023-02-24T13:33:20.650Z,16.75
2023-02-24T13:35:49.704Z,16.83
2023-02-24T13:38:33.034Z,16.92
2023-02-24T13:41:08.738Z,17.75
2023-02-24T13:43:35.395Z,16.55
2023-02-24T13:46:04.711Z,17.45
2023-02-24T13:49:07.053Z,15.88
2023-02-24T13:51:46.341Z,16.13
2023-02-24T13:54:30.224Z,16.15
2023-02-24T13:57:28.452Z,16.33
2023-02-24T14:00:10.643Z,17.92
2023-02-24T14:02:42.846Z,19.20
2023-02-24T14:05:21.920Z,16.90
2023-02-24T14:07:51.100Z,17.70
2023-02-24T14:10:27.269Z,18.08
2023-02-24T14:13:10.265Z,17.25
2023-02-24T14:15:41.558Z,19.98
2023-02-24T14:18:19.587Z,18.48
2023-02-24T14:20:46.286Z,17.33
2023-02-24T14:23:28.521Z,15.93
2023-02-24T14:26:00.070Z,16.65
2023-02-24T14:28:33.308Z,15.85
2023-02-24T14:33:33.555Z,15.05
2023-02-24T14:36:00.804Z,18.42
2023-02-24T14:38:39.456Z,17.55
2023-02-24T14:41:17.171Z,16.05
2023-02-24T14:43:43.759Z,16.50
2023-02-24T14:46:10.459Z,16.23
2023-02-24T14:48:37.108Z,16.92
2023-02-24T14:51:31.266Z,19.58
2023-02-24T14:54:01.821Z,15.90
2023-02-24T14:56:32.274Z,18.35
2023-02-24T14:59:08.855Z,15.32
2023-02-24T15:01:38.068Z,17.00
2023-02-24T15:04:28.562Z,15.95
2023-02-24T15:06:55.263Z,23.67
2023-02-24T15:09:32.921Z,17.55
2023-02-24T15:12:07.576Z,18.40
2023-02-24T15:14:34.305Z,17.55
2023-02-24T15:17:16.100Z,19.27
2023-02-24T15:19:46.373Z,17.05
2023-02-24T15:22:28.680Z,20.10
2023-02-24T15:25:15.512Z,19.95
2023-02-24T15:27:59.065Z,22.27
2023-02-24T15:33:07.450Z,18.25
2023-02-24T15:35:38.304Z,19.38
2023-02-24T15:38:05.135Z,22.50
2023-02-24T15:40:32.092Z,22.08
2023-02-24T15:43:10.607Z,18.38
2023-02-24T15:45:39.413Z,19.23
2023-02-24T15:48:26.568Z,21.77
2023-02-24T15:50:54.472Z,19.75
2023-02-24T15:53:21.188Z,22.15
2023-02-24T15:55:48.106Z,17.38
2023-02-24T15:58:18.154Z,20.27
2023-02-24T16:00:45.374Z,20.52
2023-02-24T16:03:12.729Z,22.65
2023-02-24T16:05:39.755Z,18.88
2023-02-24T16:08:11.907Z,19.90
2023-02-24T16:10:40.052Z,19.83
2023-02-24T16:13:08.709Z,21.00
2023-02-24T16:15:39.263Z,19.50
2023-02-24T16:18:14.098Z,23.58
2023-02-24T16:20:40.853Z,21.25
2023-02-24T16:23:07.467Z,18.70
2023-02-24T16:25:56.702Z,17.98
2023-02-24T16:28:24.319Z,22.05
2023-02-24T16:30:51.764Z,18.42
2023-02-24T16:33:21.004Z,20.83
2023-02-24T16:35:47.905Z,21.88
2023-02-24T16:38:16.973Z,17.75
2023-02-24T16:40:46.581Z,21.67
2023-02-24T16:43:13.362Z,21.30
2023-02-24T16:45:41.254Z,20.02
2023-02-24T16:48:21.628Z,17.50
2023-02-24T16:50:48.963Z,19.92
2023-02-24T16:53:22.512Z,21.63
2023-02-24T16:55:50.144Z,18.08
2023-02-24T16:58:17.640Z,17.30
2023-02-24T17:00:47.668Z,19.02
2023-02-24T17:03:21.528Z,20.00
2023-02-24T17:05:48.772Z,18.85
2023-02-24T17:08:16.066Z,19.05
2023-02-24T17:10:44.331Z,17.52
2023-02-24T17:13:12.714Z,16.95
2023-02-24T17:15:39.542Z,21.40
2023-02-24T17:18:07.476Z,16.33
2023-02-24T17:20:35.173Z,17.67
2023-02-24T17:23:01.930Z,18.25
2023-02-24T17:25:30.131Z,15.02
2023-02-24T17:27:58.365Z,16.40
2023-02-24T17:30:31.628Z,13.63
2023-02-24T17:32:58.393Z,17.67
2023-02-24T17:35:25.535Z,16.95
2023-02-24T17:37:52.501Z,15.18
2023-02-24T17:40:19.854Z,20.08
2023-02-24T17:42:46.777Z,16.58
2023-02-24T17:45:14.874Z,15.98
2023-02-24T17:47:42.577Z,15.93
2023-02-24T17:50:11.213Z,15.65
2023-02-24T17:52:38.334Z,18.13
2023-02-24T17:55:05.616Z,17.08
2023-02-24T17:57:34.370Z,15.90
2023-02-24T18:00:01.173Z,16.42
2023-02-24T18:02:27.968Z,14.00
2023-02-24T18:04:55.282Z,13.80
2023-02-24T18:07:21.868Z,14.70
2023-02-24T18:09:48.541Z,14.45
2023-02-24T18:12:17.152Z,14.90
2023-02-24T18:14:44.065Z,14.57
2023-02-24T18:17:11.275Z,15.18
2023-02-24T18:19:37.985Z,13.23
2023-02-24T18:22:04.850Z,11.88
2023-02-24T18:24:31.483Z,14.48
2023-02-24T18:26:58.058Z,16.00
2023-02-24T18:29:24.699Z,9.43
2023-02-24T18:31:51.563Z,13.57
2023-02-24T18:34:18.265Z,10.68
2023-02-24T18:36:44.847Z,11.63
2023-02-24T18:39:14.471Z,11.05
2023-02-24T18:41:41.415Z,10.73
2023-02-24T18:44:08.693Z,13.05
2023-02-24T18:46:35.326Z,10.68
2023-02-24T18:49:02.006Z,10.35
2023-02-24T18:51:29.109Z,13.48
2023-02-24T18:53:58.515Z,15.43
2023-02-24T18:56:26.672Z,16.02
2023-02-24T18:58:56.249Z,14.95
2023-02-24T19:01:28.638Z,14.35
2023-02-24T19:03:55.360Z,14.50
2023-02-24T19:06:24.090Z,12.85
2023-02-24T19:08:59.251Z,12.60
2023-02-24T19:11:26.317Z,14.18
2023-02-24T19:13:53.165Z,15.18
2023-02-24T19:16:20.325Z,13.00
2023-02-24T19:18:51.412Z,11.43
2023-02-24T19:21:18.316Z,11.95
2023-02-24T19:23:45.049Z,11.02
2023-02-24T19:26:16.649Z,9.02
2023-02-24T19:28:43.275Z,9.02
2023-02-24T19:31:14.670Z,7.97
2023-02-24T19:33:41.406Z,7.70
2023-02-24T19:36:08.825Z,6.00
2023-02-24T19:38:35.536Z,5.20
2023-02-24T19:41:02.243Z,4.47
2023-02-24T19:43:28.984Z,4.13
2023-02-24T19:45:55.693Z,4.05
2023-02-24T19:48:22.421Z,4.63
2023-02-24T19:50:49.072Z,3.78
2023-02-24T19:53:15.676Z,3.75
2023-02-24T19:55:48.246Z,2.85
2023-02-24T19:58:14.978Z,4.03
2023-02-24T20:00:41.598Z,5.18
2023-02-24T20:03:09.414Z,6.80
2023-02-24T20:05:36.980Z,4.90
2023-02-24T20:08:03.645Z,4.90
2023-02-24T20:10:30.227Z,7.05
2023-02-24T20:12:58.039Z,4.78
2023-02-24T20:15:24.697Z,4.80
2023-02-24T20:17:51.315Z,4.95
2023-02-24T20:20:17.939Z,7.47
2023-02-24T20:22:44.522Z,5.82
2023-02-24T20:25:12.571Z,5.40
2023-02-24T20:27:39.173Z,4.93
2023-02-24T20:30:06.159Z,4.45
2023-02-24T20:32:32.867Z,5.65
2023-02-24T20:34:59.590Z,6.47
2023-02-24T20:37:26.284Z,6.20
2023-02-24T20:39:52.921Z,4.50
2023-02-24T20:42:19.584Z,5.90
2023-02-24T20:44:46.204Z,5.97
2023-02-24T20:47:13.513Z,6.10
2023-02-24T20:49:40.185Z,5.15
2023-02-24T20:52:07.011Z,4.95
2023-02-24T20:54:33.664Z,4.88
2023-02-24T20:57:00.380Z,4.97
2023-02-24T20:59:27.043Z,4.30
2023-02-24T21:01:54.497Z,4.90
2023-02-24T21:04:21.658Z,3.58
2023-02-24T21:06:48.365Z,4.93
2023-02-24T21:09:15.924Z,5.70
2023-02-24T21:11:42.614Z,4.97
2023-02-24T21:14:16.568Z,4.05
2023-02-24T21:16:43.172Z,4.80
2023-02-24T21:19:09.803Z,6.95
2023-02-24T21:21:36.388Z,6.28
2023-02-24T21:24:03.071Z,6.13
2023-02-24T21:26:29.839Z,4.70
2023-02-24T21:28:57.994Z,5.85
2023-02-24T21:31:25.537Z,5.50
2023-02-24T21:33:53.288Z,6.38
2023-02-24T21:36:21.564Z,5.88
2023-02-24T21:38:48.811Z,6.45
2023-02-24T21:41:15.976Z,7.43
2023-02-24T21:43:44.120Z,7.90
2023-02-24T21:46:12.071Z,6.40
2023-02-24T21:48:40.580Z,6.47
2023-02-24T21:51:09.506Z,6.72
2023-02-24T21:53:39.246Z,6.75
2023-02-24T21:56:16.055Z,8.50
2023-02-24T21:58:47.318Z,5.53
2023-02-24T22:01:19.594Z,6.18
2023-02-24T22:03:46.429Z,8.15
2023-02-24T22:06:17.663Z,5.90
2023-02-24T22:08:45.389Z,5.78
2023-02-24T22:11:14.553Z,6.38
2023-02-24T22:13:42.397Z,7.18
2023-02-24T22:16:11.587Z,7.53
2023-02-24T22:18:38.717Z,7.40
2023-02-24T22:21:11.322Z,7.22
2023-02-24T22:23:38.104Z,6.20
2023-02-24T22:26:07.604Z,9.60
2023-02-24T22:28:35.889Z,7.55
2023-02-24T22:31:03.126Z,8.00
2023-02-24T22:33:31.324Z,6.95
2023-02-24T22:36:06.484Z,7.95
2023-02-24T22:38:34.387Z,7.45
2023-02-24T22:41:03.620Z,9.48
2023-02-24T22:43:30.778Z,8.25
2023-02-24T22:46:02.721Z,7.53
2023-02-24T22:48:30.385Z,9.65
2023-02-24T22:50:58.258Z,8.50
2023-02-24T22:53:25.243Z,10.32
2023-02-24T22:55:52.142Z,9.00
2023-02-24T22:58:20.750Z,7.72
2023-02-24T23:00:48.100Z,8.15
2023-02-24T23:03:20.357Z,8.27
2023-02-24T23:06:00.648Z,7.30
2023-02-24T23:08:28.937Z,10.10
2023-02-24T23:10:56.559Z,9.15
2023-02-24T23:13:23.437Z,8.35
2023-02-24T23:15:50.398Z,8.20
2023-02-24T23:18:17.060Z,6.80
2023-02-24T23:20:44.888Z,7.32
2023-02-24T23:23:11.787Z,6.03
2023-02-24T23:25:38.790Z,7.07
2023-02-24T23:28:06.319Z,8.13
2023-02-24T23:30:33.130Z,7.57
2023-02-24T23:33:00.964Z,6.28
2023-02-24T23:35:27.548Z,8.20
2023-02-24T23:37:54.171Z,7.07
2023-02-24T23:40:25.790Z,9.60
2023-02-24T23:42:53.147Z,7.32
2023-02-24T23:45:20.244Z,8.07
2023-02-24T23:47:46.888Z,7.55
2023-02-24T23:50:13.570Z,6.50
2023-02-24T23:52:40.252Z,6.22
2023-02-24T23:57:34.752Z,8.52
